Aviation Digital Data Service (ADDS)

Output produced by METARs form (2150 UTC 15 October 2018)
found at http://aviationweather.gov/metar/data/
 
KLBX 152053Z AUTO 35013KT 10SM -RA OVC009 17/16 A3000 RMK AO2 CIG 007V012 SLP157 P0000 60008 T01670156 56004
KLBX 151906Z 1519/1618 35015KT P6SM VCSH BKN008 OVC015 
     TEMPO 1519/1522 4SM TSRA BR OVC015CB 
     FM160000 36015KT P6SM OVC012 
     FM160600 36014KT P6SM VCSH BKN008 OVC012 
     FM161600 01012KT P6SM OVC012